Time;durP1;ratioP1;P1;durP2;ratioP2;P2;SDS_P1;SDS_P2;PMS_P1;PMS_P2;Temp;Humidity;BMP_temperature;BMP_pressure;BME280_temperature;BME280_humidity;BME280_pressure;Samples;Min_cycle;Max_cycle;Signal;HPM_P1;HPM_P2
2022/08/24 00:01:49;;;;;;;;;;;;;;;20.69;60.30;99601.34;4427738;32;20029;-91
2022/08/24 00:04:14;;;;;;;;;;;;;;;20.57;60.30;99604.06;4425411;32;20011;-93
2022/08/24 00:06:39;;;;;;;;;;;;;;;20.65;60.29;99610.50;4440686;32;20025;-92
2022/08/24 00:09:05;;;;;;;;;;;;;;;20.63;60.29;99606.28;4443987;32;19981;-91
2022/08/24 00:11:30;;;;;;;;;;;;;;;20.77;60.30;99609.53;4450817;32;20348;-92
2022/08/24 00:13:55;;;;;;;;;;;;;;;20.88;60.31;99607.91;4429156;32;20027;-92
2022/08/24 00:16:21;;;;;;;;;;;;;;;20.86;60.30;99605.37;4441447;32;19992;-92
2022/08/24 00:18:47;;;;;;;;;;;;;;;20.77;60.30;99604.25;4428484;32;20001;-93
2022/08/24 00:21:12;;;;;;;;;;;;;;;20.71;60.30;99603.88;4429119;32;20033;-93
2022/08/24 00:23:37;;;;;;;;;;;;;;;20.59;60.29;99600.38;4428560;32;32537;-93
2022/08/24 00:26:03;;;;;;;;;;;;;;;20.47;60.29;99598.66;4441323;32;20038;-90
2022/08/24 00:28:29;;;;;;;;;;;;;;;20.58;60.29;99600.47;4446730;32;20009;-91
2022/08/24 00:30:54;;;;;;;;;;;;;;;20.58;60.29;99603.13;4428473;32;19968;-92
2022/08/24 00:33:20;;;;;;;;;;;;;;;20.55;60.29;99598.91;4428304;32;19973;-91
2022/08/24 00:35:45;;;;;;;;;;;;;;;20.59;60.29;99602.19;4440767;32;20004;-90
2022/08/24 00:38:10;;;;;;;;;;;;;;;20.53;60.29;99603.47;4440921;32;20043;-90
2022/08/24 00:40:40;;;;;;;;;;;;;;;20.56;60.30;99603.22;4427244;32;23710;-90
2022/08/24 00:43:06;;;;;;;;;;;;;;;20.46;60.28;99600.44;4455124;32;19983;-90
2022/08/24 00:45:45;;;;;;;;;;;;;;;20.49;60.29;99597.56;4440868;32;20242;-90
2022/08/24 00:48:12;;;;;;;;;;;;;;;20.36;60.28;99604.72;4453580;32;19989;-90
2022/08/24 00:50:53;;;;;;;;;;;;;;;20.34;60.28;99603.13;4440915;32;19973;-88
2022/08/24 00:53:29;;;;;;;;;;;;;;;20.29;60.28;99607.91;4440471;32;20026;-89
2022/08/24 00:55:55;;;;;;;;;;;;;;;20.04;60.26;99617.66;4440619;32;20004;-90
2022/08/24 00:58:22;;;;;;;;;;;;;;;20.17;60.26;99607.03;4440422;32;19985;-91
2022/08/24 01:00:48;;;;;;;;;;;;;;;20.15;60.26;99601.03;4454879;32;20326;-89
2022/08/24 01:03:14;;;;;;;;;;;;;;;20.09;60.27;99599.66;4440489;32;19969;-89
2022/08/24 01:05:39;;;;;;;;;;;;;;;20.08;60.26;99589.19;4454680;32;20000;-90
2022/08/24 01:08:05;;;;;;;;;;;;;;;20.18;60.27;99577.00;4440304;32;22425;-92
2022/08/24 01:10:32;;;;;;;;;;;;;;;20.19;60.27;99576.91;4428177;32;20042;-92
2022/08/24 01:12:57;;;;;;;;;;;;;;;20.26;60.27;99576.44;4440934;32;19985;-90
2022/08/24 01:15:22;;;;;;;;;;;;;;;20.39;60.27;99587.78;4438310;32;19981;-93
2022/08/24 01:20:32;;;;;;;;;;;;;;;20.26;60.28;99584.34;4443855;32;19988;-93
2022/08/24 01:23:12;;;;;;;;;;;;;;;20.37;60.28;99581.78;4441877;32;19981;-93
2022/08/24 01:25:37;;;;;;;;;;;;;;;20.35;60.28;99589.81;4426028;32;20001;-93
2022/08/24 01:28:03;;;;;;;;;;;;;;;20.38;60.28;99592.22;4439461;32;20389;-93
2022/08/24 01:30:29;;;;;;;;;;;;;;;20.40;60.29;99587.69;4452492;32;20049;-93
2022/08/24 01:32:55;;;;;;;;;;;;;;;20.43;60.29;99589.28;4427074;32;19977;-93
2022/08/24 01:35:20;;;;;;;;;;;;;;;20.50;60.29;99593.12;4425336;32;20036;-94
2022/08/24 01:37:49;;;;;;;;;;;;;;;20.27;60.27;99597.47;4429923;32;20259;-92
2022/08/24 01:40:14;;;;;;;;;;;;;;;20.34;60.28;99603.97;4429868;32;19989;-93
2022/08/24 01:42:39;;;;;;;;;;;;;;;20.38;60.27;99597.50;4430413;32;20029;-93
2022/08/24 01:45:04;;;;;;;;;;;;;;;20.58;60.29;99595.19;4436910;32;19993;-91
2022/08/24 01:47:30;;;;;;;;;;;;;;;20.47;60.29;99603.94;4447604;32;20545;-93
2022/08/24 01:49:55;;;;;;;;;;;;;;;20.50;60.28;99607.19;4428968;32;20299;-92
2022/08/24 01:52:21;;;;;;;;;;;;;;;20.54;60.28;99608.62;4417420;32;20012;-91
2022/08/24 01:54:47;;;;;;;;;;;;;;;20.60;60.29;99612.66;4425260;32;20005;-92
2022/08/24 01:57:12;;;;;;;;;;;;;;;20.58;60.29;99611.03;4446931;32;20008;-91
2022/08/24 01:59:38;;;;;;;;;;;;;;;20.56;60.29;99607.69;4427593;32;19981;-91
2022/08/24 02:02:06;;;;;;;;;;;;;;;20.53;60.28;99612.25;4427806;32;19973;-92
2022/08/24 02:04:32;;;;;;;;;;;;;;;20.63;60.29;99619.50;4427660;32;19981;-91
2022/08/24 02:06:58;;;;;;;;;;;;;;;20.70;60.29;99620.72;4440303;32;20001;-91
2022/08/24 02:09:23;;;;;;;;;;;;;;;20.83;60.30;99614.38;4440338;32;19987;-89
2022/08/24 02:11:48;;;;;;;;;;;;;;;20.78;60.29;99616.50;4451371;32;28833;-90
2022/08/24 02:14:14;;;;;;;;;;;;;;;20.78;60.29;99610.38;4440258;32;19996;-89
2022/08/24 02:16:39;;;;;;;;;;;;;;;20.63;60.29;99617.69;4440569;32;19989;-90
2022/08/24 02:19:04;;;;;;;;;;;;;;;20.49;60.29;99624.00;4440425;32;19992;-91
2022/08/24 02:21:29;;;;;;;;;;;;;;;20.47;60.29;99611.87;4440540;32;19985;-91
2022/08/24 02:23:55;;;;;;;;;;;;;;;20.44;60.28;99618.22;4426897;32;20008;-91
2022/08/24 02:26:20;;;;;;;;;;;;;;;20.51;60.28;99623.91;4427078;32;21229;-90
2022/08/24 02:28:45;;;;;;;;;;;;;;;20.42;60.28;99621.94;4440038;32;19981;-90
2022/08/24 02:31:11;;;;;;;;;;;;;;;20.32;60.28;99623.53;4427603;32;19973;-91
2022/08/24 02:33:37;;;;;;;;;;;;;;;20.27;60.27;99620.41;4440637;32;20004;-93
2022/08/24 02:36:03;;;;;;;;;;;;;;;20.16;60.26;99624.69;4427558;32;20052;-93
2022/08/24 02:38:28;;;;;;;;;;;;;;;20.20;60.27;99625.31;4427648;32;20028;-91
2022/08/24 02:40:54;;;;;;;;;;;;;;;20.13;60.26;99630.22;4427465;32;19997;-91
2022/08/24 02:43:19;;;;;;;;;;;;;;;20.11;60.27;99623.31;4427414;32;19993;-90
2022/08/24 02:45:44;;;;;;;;;;;;;;;20.13;60.26;99632.84;4427677;32;19993;-90
2022/08/24 02:48:10;;;;;;;;;;;;;;;20.11;60.27;99631.25;4427984;32;20274;-92
2022/08/24 02:50:41;;;;;;;;;;;;;;;20.20;60.27;99626.16;4427974;32;20052;-92
2022/08/24 02:53:06;;;;;;;;;;;;;;;20.20;60.27;99627.94;4428356;32;20003;-92
2022/08/24 02:55:42;;;;;;;;;;;;;;;20.18;60.27;99636.00;4441214;32;20296;-93
2022/08/24 02:58:15;;;;;;;;;;;;;;;20.02;60.26;99635.41;4440541;32;19996;-92
2022/08/24 03:00:40;;;;;;;;;;;;;;;20.11;60.27;99634.78;4428621;32;20510;-92
2022/08/24 03:03:06;;;;;;;;;;;;;;;20.11;60.27;99628.59;4427101;32;20007;-91
2022/08/24 03:05:32;;;;;;;;;;;;;;;20.15;60.26;99638.88;4440415;32;20012;-90
2022/08/24 03:07:57;;;;;;;;;;;;;;;20.14;60.26;99634.53;4439994;32;19972;-90
2022/08/24 03:10:22;;;;;;;;;;;;;;;20.28;60.27;99630.88;4440173;32;19981;-89
2022/08/24 03:12:48;;;;;;;;;;;;;;;20.26;60.27;99622.22;4427598;32;19991;-89
2022/08/24 03:15:13;;;;;;;;;;;;;;;20.32;60.28;99623.53;4441128;32;20007;-90
2022/08/24 03:17:39;;;;;;;;;;;;;;;20.26;60.27;99622.22;4442064;32;20010;-90
2022/08/24 03:20:05;;;;;;;;;;;;;;;20.34;60.27;99626.91;4434729;32;20139;-89
2022/08/24 03:22:30;;;;;;;;;;;;;;;20.31;60.27;99629.78;4444198;32;19997;-91
2022/08/24 03:24:55;;;;;;;;;;;;;;;20.13;60.26;99626.72;4427280;32;20322;-91
2022/08/24 03:27:20;;;;;;;;;;;;;;;20.10;60.26;99630.41;4439254;32;20415;-91
2022/08/24 03:29:46;;;;;;;;;;;;;;;20.26;60.27;99618.72;4426624;32;20551;-90
2022/08/24 03:32:11;;;;;;;;;;;;;;;20.35;60.28;99623.34;4426576;32;20007;-91
2022/08/24 03:34:36;;;;;;;;;;;;;;;20.31;60.27;99617.41;4427044;32;20000;-92
2022/08/24 03:37:02;;;;;;;;;;;;;;;20.48;60.29;99624.12;4427356;32;19993;-92
2022/08/24 03:39:29;;;;;;;;;;;;;;;20.40;60.28;99622.06;4428068;32;19981;-95
2022/08/24 03:41:55;;;;;;;;;;;;;;;20.38;60.27;99633.69;4428740;32;20017;-94
2022/08/24 03:44:20;;;;;;;;;;;;;;;20.55;60.28;99625.34;4428134;32;20486;-93
2022/08/24 03:46:49;;;;;;;;;;;;;;;20.52;60.28;99617.66;4428023;32;19961;-93
2022/08/24 03:49:14;;;;;;;;;;;;;;;20.41;60.28;99614.97;4429973;32;20048;-93
2022/08/24 03:51:39;;;;;;;;;;;;;;;20.58;60.29;99627.75;4429367;32;19999;-91
2022/08/24 03:54:05;;;;;;;;;;;;;;;20.63;60.29;99619.50;4441549;32;20356;-92
2022/08/24 03:56:30;;;;;;;;;;;;;;;20.53;60.28;99617.53;4428416;32;20059;-90
2022/08/24 03:58:56;;;;;;;;;;;;;;;20.41;60.28;99617.63;4425268;32;19990;-91
2022/08/24 04:01:21;;;;;;;;;;;;;;;20.40;60.27;99621.19;4426315;32;20001;-91
2022/08/24 04:03:46;;;;;;;;;;;;;;;20.31;60.27;99622.69;4433809;32;21629;-93
2022/08/24 04:06:12;;;;;;;;;;;;;;;20.36;60.27;99631.16;4429064;32;19981;-92
2022/08/24 04:08:38;;;;;;;;;;;;;;;20.29;60.27;99627.25;4426152;32;20298;-93
2022/08/24 04:11:03;;;;;;;;;;;;;;;20.40;60.28;99627.34;4446515;32;19993;-92
2022/08/24 04:13:30;;;;;;;;;;;;;;;20.33;60.28;99625.22;4455416;32;19977;-91
2022/08/24 04:15:56;;;;;;;;;;;;;;;20.44;60.28;99620.03;4428497;32;20014;-91
2022/08/24 04:18:21;;;;;;;;;;;;;;;20.49;60.28;99626.66;4441156;32;20238;-91
2022/08/24 04:20:46;;;;;;;;;;;;;;;20.38;60.27;99629.25;4428407;32;20375;-90
2022/08/24 04:23:12;;;;;;;;;;;;;;;20.44;60.28;99622.69;4428404;32;20005;-91
2022/08/24 04:25:38;;;;;;;;;;;;;;;20.56;60.29;99619.09;4441286;32;19969;-90
2022/08/24 04:28:05;;;;;;;;;;;;;;;20.67;60.29;99619.16;4425696;32;20039;-91
2022/08/24 04:30:30;;;;;;;;;;;;;;;20.52;60.28;99615.00;4425487;32;19981;-92
2022/08/24 04:32:56;;;;;;;;;;;;;;;20.48;60.29;99624.97;4441882;32;20466;-92
2022/08/24 04:35:21;;;;;;;;;;;;;;;20.47;60.27;99623.28;4428823;32;20263;-91
2022/08/24 04:37:46;;;;;;;;;;;;;;;20.56;60.29;99615.59;4441471;32;20001;-90
2022/08/24 04:40:12;;;;;;;;;;;;;;;20.60;60.29;99623.22;4440552;32;20024;-89
2022/08/24 04:42:37;;;;;;;;;;;;;;;20.55;60.28;99617.41;4455292;32;19981;-89
2022/08/24 04:45:03;;;;;;;;;;;;;;;20.54;60.28;99619.22;4441419;32;20607;-88
2022/08/24 04:47:28;;;;;;;;;;;;;;;20.63;60.29;99622.16;4441682;32;20355;-87
2022/08/24 04:49:53;;;;;;;;;;;;;;;20.59;60.29;99624.19;4456464;32;20005;-89
2022/08/24 04:52:19;;;;;;;;;;;;;;;20.62;60.29;99625.75;4457240;32;19982;-88
2022/08/24 04:54:44;;;;;;;;;;;;;;;20.69;60.29;99616.38;4447252;32;19981;-88
2022/08/24 04:57:09;;;;;;;;;;;;;;;20.64;60.29;99614.09;4441812;32;25292;-89
2022/08/24 04:59:35;;;;;;;;;;;;;;;20.71;60.30;99628.53;4426645;32;20009;-87
2022/08/24 05:02:00;;;;;;;;;;;;;;;20.79;60.31;99633.22;4427729;32;20514;-89
2022/08/24 05:04:25;;;;;;;;;;;;;;;20.79;60.30;99626.13;4427316;32;20298;-89
2022/08/24 05:06:50;;;;;;;;;;;;;;;20.76;60.29;99626.38;4427556;32;20286;-90
2022/08/24 05:09:15;;;;;;;;;;;;;;;20.87;60.30;99624.72;4427404;32;19995;-89
2022/08/24 05:11:41;;;;;;;;;;;;;;;20.79;60.29;99620.00;4439945;32;20040;-90
2022/08/24 05:14:06;;;;;;;;;;;;;;;20.83;60.30;99614.38;4427951;32;20369;-90
2022/08/24 05:16:33;;;;;;;;;;;;;;;21.04;60.31;99611.03;4439665;32;26257;-89
2022/08/24 05:18:59;;;;;;;;;;;;;;;21.32;60.32;99610.63;4427505;32;19989;-90
2022/08/24 05:21:24;;;;;;;;;;;;;;;21.36;60.33;99613.84;4440469;32;20017;-90
2022/08/24 05:23:50;;;;;;;;;;;;;;;21.45;60.33;99616.59;4440273;32;20005;-90
2022/08/24 05:26:24;;;;;;;;;;;;;;;21.53;60.33;99629.28;4440399;32;20372;-90
2022/08/24 05:28:50;;;;;;;;;;;;;;;21.42;60.33;99626.59;4427408;32;20004;-90
2022/08/24 05:31:16;;;;;;;;;;;;;;;21.60;60.34;99621.66;4440277;32;20281;-91
2022/08/24 05:33:41;;;;;;;;;;;;;;;21.48;60.32;99622.63;4440131;32;20036;-89
2022/08/24 05:36:13;;;;;;;;;;;;;;;21.51;60.33;99628.50;4454424;32;19993;-89
2022/08/24 05:38:38;;;;;;;;;;;;;;;21.36;60.33;99627.09;4440155;32;20001;-91
2022/08/24 05:41:04;;;;;;;;;;;;;;;21.54;60.33;99627.47;4440057;32;20000;-90
2022/08/24 05:43:29;;;;;;;;;;;;;;;21.63;60.34;99627.56;4440261;32;19978;-90
2022/08/24 05:45:54;;;;;;;;;;;;;;;21.75;60.35;99625.72;4439656;32;24043;-90
2022/08/24 05:48:19;;;;;;;;;;;;;;;21.83;60.35;99625.13;4454065;32;20017;-90
2022/08/24 05:50:52;;;;;;;;;;;;;;;21.83;60.35;99623.31;4439987;32;19985;-90
2022/08/24 05:53:17;;;;;;;;;;;;;;;21.89;60.36;99620.16;4439980;32;20035;-89
2022/08/24 05:55:42;;;;;;;;;;;;;;;21.83;60.35;99620.66;4439986;32;20267;-89
2022/08/24 05:58:08;;;;;;;;;;;;;;;21.97;60.36;99624.84;4453614;32;23107;-89
2022/08/24 06:00:33;;;;;;;;;;;;;;;22.02;60.36;99618.22;4454099;32;19969;-89
2022/08/24 06:02:58;;;;;;;;;;;;;;;21.93;60.36;99616.28;4426666;32;21391;-89
2022/08/24 06:05:24;;;;;;;;;;;;;;;22.20;60.37;99617.69;4439286;32;29023;-90
2022/08/24 06:07:49;;;;;;;;;;;;;;;22.37;60.38;99611.84;4440363;32;20035;-89
2022/08/24 06:10:14;;;;;;;;;;;;;;;22.37;60.38;99607.38;4426398;32;19993;-89
2022/08/24 06:12:39;;;;;;;;;;;;;;;22.59;60.39;99609.09;4426803;32;28058;-90
2022/08/24 06:15:05;;;;;;;;;;;;;;;22.71;60.40;99615.16;4454149;32;20314;-91
2022/08/24 06:17:30;;;;;;;;;;;;;;;22.70;60.39;99610.81;4427410;32;20321;-90
2022/08/24 06:19:55;;;;;;;;;;;;;;;22.95;60.41;99615.78;4440072;32;22845;-89
2022/08/24 06:22:20;;;;;;;;;;;;;;;22.86;60.40;99613.06;4427677;32;19980;-90
2022/08/24 06:27:30;;;;;;;;;;;;;;;23.14;60.42;99623.00;4456244;32;20027;-90
2022/08/24 06:29:56;;;;;;;;;;;;;;;23.25;60.42;99622.94;4431607;32;20005;-91
2022/08/24 06:32:22;;;;;;;;;;;;;;;23.23;60.42;99624.88;4427124;32;19997;-90
2022/08/24 06:34:47;;;;;;;;;;;;;;;23.48;60.44;99628.91;4432817;32;19970;-89
2022/08/24 06:37:12;;;;;;;;;;;;;;;23.52;60.44;99635.63;4449736;32;20244;-90
2022/08/24 06:39:37;;;;;;;;;;;;;;;23.49;60.43;99627.91;4439491;32;20012;-90
2022/08/24 06:42:03;;;;;;;;;;;;;;;23.40;60.43;99631.38;4453624;32;20311;-89
2022/08/24 06:44:28;;;;;;;;;;;;;;;23.51;60.43;99636.59;4426864;32;20023;-89
2022/08/24 06:46:53;;;;;;;;;;;;;;;23.72;60.45;99633.91;4439490;32;23451;-89
2022/08/24 06:49:18;;;;;;;;;;;;;;;23.95;60.46;99631.88;4453371;32;24212;-89
2022/08/24 06:51:44;;;;;;;;;;;;;;;24.02;60.46;99629.50;4426377;32;28736;-90
2022/08/24 06:54:09;;;;;;;;;;;;;;;24.07;60.47;99629.91;4439731;32;19965;-89
2022/08/24 06:56:35;;;;;;;;;;;;;;;24.26;60.48;99627.28;4453753;32;20310;-89
2022/08/24 06:59:02;;;;;;;;;;;;;;;24.40;60.48;99626.91;4453726;32;19996;-89
2022/08/24 07:01:28;;;;;;;;;;;;;;;24.74;60.50;99629.09;4453759;32;20080;-89
2022/08/24 07:03:53;;;;;;;;;;;;;;;24.78;60.51;99626.00;4439133;32;23477;-90
2022/08/24 07:06:18;;;;;;;;;;;;;;;24.98;60.51;99625.97;4439293;32;20358;-89
2022/08/24 07:08:44;;;;;;;;;;;;;;;25.02;60.52;99628.25;4439520;32;20379;-89
2022/08/24 07:11:09;;;;;;;;;;;;;;;25.20;60.52;99631.00;4453193;32;22690;-89
2022/08/24 07:13:34;;;;;;;;;;;;;;;25.23;60.52;99636.03;4453559;32;19969;-89
2022/08/24 07:16:00;;;;;;;;;;;;;;;25.24;60.53;99645.69;4439248;32;19985;-89
2022/08/24 07:18:25;;;;;;;;;;;;;;;25.33;60.54;99652.00;4439340;32;19993;-89
2022/08/24 07:20:50;;;;;;;;;;;;;;;25.47;60.55;99659.50;4439197;32;20009;-90
2022/08/24 07:23:16;;;;;;;;;;;;;;;25.46;60.53;99651.66;4440372;32;20004;-89
2022/08/24 07:25:42;;;;;;;;;;;;;;;25.70;60.55;99654.66;4441279;32;19993;-89
2022/08/24 07:28:07;;;;;;;;;;;;;;;25.77;60.55;99653.06;4454126;32;19989;-89
2022/08/24 07:30:32;;;;;;;;;;;;;;;25.81;60.56;99650.97;4440187;32;31339;-89
2022/08/24 07:32:57;;;;;;;;;;;;;;;25.97;60.57;99649.31;4454822;32;22968;-89
2022/08/24 07:35:26;;;;;;;;;;;;;;;26.17;60.57;99657.19;4441090;32;20054;-89
2022/08/24 07:37:52;;;;;;;;;;;;;;;26.21;60.57;99661.25;4451575;32;20049;-89
2022/08/24 07:40:17;;;;;;;;;;;;;;;26.29;60.58;99666.69;4449407;32;19985;-89
2022/08/24 07:42:45;;;;;;;;;;;;;;;26.65;60.61;99656.00;4455243;32;19981;-89
2022/08/24 07:45:11;;;;;;;;;;;;;;;26.91;60.61;99665.75;4441308;32;20001;-89
2022/08/24 07:47:36;;;;;;;;;;;;;;;27.02;60.61;99658.53;4454829;32;19981;-89
2022/08/24 07:50:01;;;;;;;;;;;;;;;27.20;60.62;99667.31;4441435;32;19984;-89
2022/08/24 07:52:26;;;;;;;;;;;;;;;27.45;60.64;99668.31;4454968;32;23803;-89
2022/08/24 07:54:52;;;;;;;;;;;;;;;27.69;60.65;99663.09;4428331;32;20020;-90
2022/08/24 07:57:17;;;;;;;;;;;;;;;27.75;60.65;99667.81;4441280;32;20001;-89
2022/08/24 07:59:42;;;;;;;;;;;;;;;27.84;60.66;99671.34;4455866;32;20241;-89
2022/08/24 08:02:09;;;;;;;;;;;;;;;28.25;60.68;99674.19;4455292;32;24225;-88
2022/08/24 08:04:35;;;;;;;;;;;;;;;28.47;60.70;99678.91;4457042;32;20595;-90
2022/08/24 08:07:00;;;;;;;;;;;;;;;28.44;60.69;99671.22;4454968;32;28260;-89
2022/08/24 08:09:25;;;;;;;;;;;;;;;28.41;60.69;99671.53;4427863;32;19977;-88
2022/08/24 08:11:51;;;;;;;;;;;;;;;28.27;60.68;99681.03;4455287;32;20023;-89
2022/08/24 08:14:16;;;;;;;;;;;;;;;28.16;60.68;99670.63;4440544;32;26440;-88
2022/08/24 08:16:41;;;;;;;;;;;;;;;28.51;60.69;99674.03;4455294;32;19989;-88
2022/08/24 08:19:07;;;;;;;;;;;;;;;28.65;60.70;99676.09;4440919;32;20339;-88
2022/08/24 08:24:17;;;;;;;;;;;;;;;29.17;60.72;99675.75;4444598;32;20019;-88
2022/08/24 08:26:45;;;;;;;;;;;;;;;29.31;60.73;99666.97;4428022;32;20012;-88
2022/08/24 08:29:12;;;;;;;;;;;;;;;29.57;60.75;99678.31;4440661;32;19989;-88
2022/08/24 08:31:37;;;;;;;;;;;;;;;29.49;60.74;99670.31;4440956;32;19981;-88
2022/08/24 08:34:02;;;;;;;;;;;;;;;29.55;60.75;99668.78;4439686;32;19981;-88
2022/08/24 08:36:28;;;;;;;;;;;;;;;29.67;60.76;99671.94;4427724;32;20647;-88
2022/08/24 08:38:53;;;;;;;;;;;;;;;29.75;60.76;99675.41;4453386;32;20025;-87
2022/08/24 08:41:57;;;;;;;;;;;;;;;29.58;60.76;99680.03;4454937;32;20016;-88
2022/08/24 08:44:24;;;;;;;;;;;;;;;29.64;60.75;99690.06;4391020;32;19983;-88
2022/08/24 08:47:04;;;;;;;;;;;;;;;29.75;60.77;99679.94;4391210;32;20006;-88
2022/08/24 08:49:48;;;;;;;;;;;;;;;29.87;60.76;99686.63;4427339;32;20056;-88
2022/08/24 08:52:32;;;;;;;;;;;;;;;29.65;60.76;99685.53;4455058;32;20030;-88
2022/08/24 08:55:00;;;;;;;;;;;;;;;29.54;60.75;99684.03;4451197;32;19998;-88
2022/08/24 08:57:44;;;;;;;;;;;;;;;29.80;60.76;99688.31;4449878;32;20065;-88
2022/08/24 09:00:11;;;;;;;;;;;;;;;30.05;60.77;99681.87;4440388;32;20341;-87
2022/08/24 09:02:51;;;;;;;;;;;;;;;30.05;60.77;99691.75;4440530;32;20318;-88
2022/08/24 09:05:32;;;;;;;;;;;;;;;30.09;60.78;99683.19;4440615;32;20035;-88
2022/08/24 09:08:17;;;;;;;;;;;;;;;30.23;60.79;99690.47;4454597;32;19993;-88
2022/08/24 09:10:42;;;;;;;;;;;;;;;30.36;60.79;99695.28;4444464;32;20033;-88
2022/08/24 09:13:20;;;;;;;;;;;;;;;30.49;60.79;99686.63;4440360;32;20235;-88
2022/08/24 09:15:48;;;;;;;;;;;;;;;30.66;60.81;99690.06;4454768;32;20607;-87
2022/08/24 09:18:23;;;;;;;;;;;;;;;30.78;60.82;99677.88;4440390;32;20011;-87
2022/08/24 09:20:51;;;;;;;;;;;;;;;30.64;60.81;99692.94;4440300;32;19974;-87
2022/08/24 09:23:25;;;;;;;;;;;;;;;30.93;60.83;99678.75;4454576;32;19997;-86
2022/08/24 09:26:00;;;;;;;;;;;;;;;30.87;60.83;99671.41;4454488;32;20047;-86
2022/08/24 09:28:25;;;;;;;;;;;;;;;31.23;60.84;99673.44;4453244;32;20004;-87
2022/08/24 09:30:50;;;;;;;;;;;;;;;31.24;60.84;99678.66;4454588;32;19989;-86
2022/08/24 09:33:19;;;;;;;;;;;;;;;31.59;60.86;99676.25;4454537;32;19993;-86
2022/08/24 09:35:50;;;;;;;;;;;;;;;31.60;60.86;99675.22;4440178;32;20012;-86
2022/08/24 09:38:17;;;;;;;;;;;;;;;31.71;60.86;99670.25;4454638;32;19997;-86
2022/08/24 09:41:01;;;;;;;;;;;;;;;31.70;60.86;99662.31;4454726;32;20348;-86
2022/08/24 09:43:44;;;;;;;;;;;;;;;31.81;60.87;99664.56;4454889;32;20001;-86
2022/08/24 09:46:25;;;;;;;;;;;;;;;31.92;60.87;99674.84;4454161;32;19988;-86
2022/08/24 09:49:08;;;;;;;;;;;;;;;31.85;60.87;99671.25;4454589;32;20348;-86
2022/08/24 09:51:52;;;;;;;;;;;;;;;32.17;60.88;99655.66;4454612;32;19964;-86
2022/08/24 09:54:36;;;;;;;;;;;;;;;32.24;60.89;99654.72;4454621;32;20250;-86
2022/08/24 09:57:07;;;;;;;;;;;;;;;32.41;60.91;99651.78;4454411;32;20038;-86
2022/08/24 09:59:41;;;;;;;;;;;;;;;32.37;60.90;99648.66;4440138;32;20435;-86
2022/08/24 10:02:07;;;;;;;;;;;;;;;32.48;60.90;99642.78;4454317;32;20349;-87
2022/08/24 10:04:37;;;;;;;;;;;;;;;32.47;60.91;99640.28;4454285;32;20021;-86
2022/08/24 10:07:11;;;;;;;;;;;;;;;32.49;60.90;99646.28;4439989;32;20050;-86
2022/08/24 10:09:46;;;;;;;;;;;;;;;32.46;60.91;99639.44;4440109;32;20007;-86
2022/08/24 10:12:15;;;;;;;;;;;;;;;32.35;60.89;99650.72;4454259;32;20029;-86
2022/08/24 10:14:52;;;;;;;;;;;;;;;32.54;60.91;99643.84;4440072;32;20033;-86
2022/08/24 10:17:18;;;;;;;;;;;;;;;32.47;60.91;99643.81;4440035;32;20045;-86
2022/08/24 10:20:19;;;;;;;;;;;;;;;32.24;60.89;99648.50;4454216;32;19973;-86
2022/08/24 10:23:03;;;;;;;;;;;;;;;32.36;60.91;99641.59;4390640;32;19983;-86
2022/08/24 10:25:40;;;;;;;;;;;;;;;32.34;60.90;99649.03;4448779;32;20024;-86
2022/08/24 10:28:14;;;;;;;;;;;;;;;32.43;60.90;99652.47;4439821;32;19996;-86
2022/08/24 10:30:55;;;;;;;;;;;;;;;32.20;60.89;99655.31;4454117;32;19994;-86
2022/08/24 10:33:27;;;;;;;;;;;;;;;32.26;60.89;99658.09;4427074;32;20004;-86
2022/08/24 10:36:04;;;;;;;;;;;;;;;32.18;60.89;99654.62;4439844;32;19974;-86
2022/08/24 10:41:51;;;;;;;;;;;;;;;32.23;60.90;99663.00;4390430;32;20299;-86
2022/08/24 10:44:24;;;;;;;;;;;;;;;32.00;60.89;99668.53;4449520;32;20025;-86
2022/08/24 10:46:59;;;;;;;;;;;;;;;32.01;60.89;99662.97;4439888;32;19973;-86
2022/08/24 10:49:33;;;;;;;;;;;;;;;31.70;60.87;99660.44;4426961;32;19993;-87
2022/08/24 10:52:17;;;;;;;;;;;;;;;31.67;60.87;99660.00;4454113;32;20003;-86
2022/08/24 10:54:43;;;;;;;;;;;;;;;31.45;60.86;99659.06;4454088;32;20004;-86
2022/08/24 10:57:17;;;;;;;;;;;;;;;31.06;60.84;99659.31;4438804;32;20301;-86
2022/08/24 11:00:01;;;;;;;;;;;;;;;31.27;60.85;99667.53;4439781;32;19996;-86
2022/08/24 11:02:30;;;;;;;;;;;;;;;31.08;60.83;99660.81;4453855;32;19985;-86
2022/08/24 11:04:56;;;;;;;;;;;;;;;31.06;60.84;99664.69;4439465;32;20145;-86
2022/08/24 11:07:21;;;;;;;;;;;;;;;31.26;60.85;99665.87;4439663;32;20364;-87
2022/08/24 11:09:50;;;;;;;;;;;;;;;31.10;60.85;99668.69;4453217;32;21265;-86
2022/08/24 11:12:25;;;;;;;;;;;;;;;31.15;60.84;99661.72;4439728;32;20000;-87
2022/08/24 11:14:50;;;;;;;;;;;;;;;31.06;60.84;99670.06;4453880;32;20041;-86
2022/08/24 11:17:19;;;;;;;;;;;;;;;31.00;60.84;99670.81;4453622;32;20239;-86
2022/08/24 11:19:44;;;;;;;;;;;;;;;30.80;60.83;99663.25;4439299;32;19981;-86
2022/08/24 11:22:29;;;;;;;;;;;;;;;30.62;60.83;99664.56;4453382;32;20000;-86
2022/08/24 11:24:57;;;;;;;;;;;;;;;30.48;60.82;99661.59;4453558;32;19991;-87
2022/08/24 11:27:25;;;;;;;;;;;;;;;30.24;60.80;99665.28;4439084;32;19977;-86
2022/08/24 11:29:50;;;;;;;;;;;;;;;30.24;60.81;99677.88;4439342;32;19989;-87
2022/08/24 11:32:31;;;;;;;;;;;;;;;30.28;60.80;99675.69;4453282;32;20317;-87
2022/08/24 11:35:00;;;;;;;;;;;;;;;30.01;60.79;99674.28;4453370;32;19985;-87
2022/08/24 11:37:30;;;;;;;;;;;;;;;29.82;60.79;99681.78;4439079;32;20011;-87
2022/08/24 11:39:55;;;;;;;;;;;;;;;29.66;60.78;99678.31;4439085;32;20036;-86
2022/08/24 11:42:20;;;;;;;;;;;;;;;29.40;60.76;99683.91;4438217;32;31190;-86
2022/08/24 11:44:52;;;;;;;;;;;;;;;29.17;60.76;99689.97;4453212;32;19985;-87
2022/08/24 11:47:22;;;;;;;;;;;;;;;28.88;60.74;99687.00;4453179;32;19986;-86
2022/08/24 11:50:07;;;;;;;;;;;;;;;28.59;60.72;99688.28;4428999;32;20004;-86
2022/08/24 11:52:32;;;;;;;;;;;;;;;28.40;60.71;99697.47;4453348;32;20289;-86
2022/08/24 11:55:00;;;;;;;;;;;;;;;28.12;60.70;99687.97;4453210;32;20011;-85
2022/08/24 11:57:29;;;;;;;;;;;;;;;27.97;60.70;99703.00;4438855;32;19990;-86
2022/08/24 12:00:03;;;;;;;;;;;;;;;27.45;60.66;99701.22;4438753;32;19973;-85
2022/08/24 12:02:28;;;;;;;;;;;;;;;27.25;60.65;99698.91;4438899;32;20003;-85
2022/08/24 12:04:56;;;;;;;;;;;;;;;26.74;60.63;99714.69;4452797;32;19997;-85
2022/08/24 12:07:25;;;;;;;;;;;;;;;26.40;60.62;99716.34;4438642;32;19977;-86
2022/08/24 12:09:50;;;;;;;;;;;;;;;26.13;60.60;99727.84;4440431;32;20004;-87
2022/08/24 12:12:22;;;;;;;;;;;;;;;25.84;60.58;99734.19;4440739;32;20048;-87
2022/08/24 12:14:47;;;;;;;;;;;;;;;25.48;60.57;99743.81;4441144;32;20479;-87
2022/08/24 12:17:12;;;;;;;;;;;;;;;24.88;60.53;99743.16;4440840;32;19985;-86
2022/08/24 12:19:40;;;;;;;;;;;;;;;24.13;60.50;99746.38;4455234;32;20023;-86
2022/08/24 12:22:05;;;;;;;;;;;;;;;24.05;60.50;99738.22;4454907;32;19999;-85
2022/08/24 12:24:34;;;;;;;;;;;;;;;24.02;60.50;99744.66;4440851;32;20293;-86
2022/08/24 12:27:02;;;;;;;;;;;;;;;24.06;60.49;99755.88;4428012;32;19973;-87
2022/08/24 12:29:33;;;;;;;;;;;;;;;24.22;60.51;99755.38;4441146;32;19993;-86
2022/08/24 12:31:58;;;;;;;;;;;;;;;23.96;60.48;99745.22;4441097;32;20263;-87
2022/08/24 12:34:36;;;;;;;;;;;;;;;23.98;60.48;99745.06;4440553;32;20038;-87
2022/08/24 12:37:05;;;;;;;;;;;;;;;24.04;60.48;99737.38;4440764;32;20398;-87
2022/08/24 12:39:34;;;;;;;;;;;;;;;24.25;60.50;99741.78;4440877;32;19973;-87
2022/08/24 12:41:59;;;;;;;;;;;;;;;24.49;60.51;99742.28;4455081;32;20020;-87
2022/08/24 12:44:27;;;;;;;;;;;;;;;24.65;60.52;99739.94;4440652;32;19996;-87
2022/08/24 12:46:53;;;;;;;;;;;;;;;25.02;60.54;99736.59;4441064;32;19981;-88
2022/08/24 12:49:22;;;;;;;;;;;;;;;25.13;60.54;99741.78;4455306;32;20025;-88
2022/08/24 12:51:59;;;;;;;;;;;;;;;25.16;60.55;99745.97;4431076;32;20277;-89
2022/08/24 12:54:44;;;;;;;;;;;;;;;25.33;60.55;99737.25;4440723;32;20366;-88
2022/08/24 12:57:09;;;;;;;;;;;;;;;25.50;60.56;99720.50;4450890;32;20063;-88
2022/08/24 12:59:34;;;;;;;;;;;;;;;25.27;60.55;99725.34;4439146;32;20385;-88
2022/08/24 13:02:23;;;;;;;;;;;;;;;25.48;60.56;99716.31;4439368;32;19996;-88
2022/08/24 13:04:48;;;;;;;;;;;;;;;25.54;60.57;99713.06;4438035;32;19969;-88